createdAt,value
2022-10-09T00:04:23.609Z,4.70
2022-10-09T00:09:29.647Z,5.30
2022-10-09T00:14:35.471Z,5.60
2022-10-09T00:19:41.238Z,5.90
2022-10-09T00:24:46.955Z,4.90
2022-10-09T00:29:52.762Z,4.60
2022-10-09T00:34:58.695Z,4.90
2022-10-09T00:40:05.425Z,5.10
2022-10-09T00:45:20.093Z,4.80
2022-10-09T00:50:28.171Z,4.20
2022-10-09T00:55:38.022Z,4.70
2022-10-09T01:00:43.824Z,4.50
2022-10-09T01:06:00.551Z,4.10
2022-10-09T01:11:18.198Z,4.80
2022-10-09T01:16:29.207Z,3.70
2022-10-09T01:27:09.653Z,4.00
2022-10-09T01:32:21.129Z,3.70
2022-10-09T01:37:28.543Z,4.00
2022-10-09T01:42:34.508Z,4.70
2022-10-09T01:47:40.405Z,4.30
2022-10-09T01:52:50.440Z,3.80
2022-10-09T01:58:05.511Z,4.20
2022-10-09T02:03:15.617Z,4.10
2022-10-09T02:08:24.280Z,4.00
2022-10-09T02:13:31.269Z,3.80
2022-10-09T02:18:40.863Z,4.10
2022-10-09T02:23:49.871Z,4.00
2022-10-09T02:28:57.362Z,4.20
2022-10-09T02:34:05.575Z,4.10
2022-10-09T02:39:11.805Z,4.30
2022-10-09T02:44:18.291Z,4.90
2022-10-09T02:49:24.621Z,4.50
2022-10-09T02:54:30.317Z,4.60
2022-10-09T02:59:36.073Z,4.20
2022-10-09T03:04:41.841Z,4.40
2022-10-09T03:09:47.566Z,4.80
2022-10-09T03:14:53.342Z,4.90
2022-10-09T03:19:59.730Z,4.20
2022-10-09T03:25:06.574Z,3.90
2022-10-09T03:30:13.943Z,4.70
2022-10-09T03:35:19.896Z,4.60
2022-10-09T03:40:25.941Z,4.90
2022-10-09T03:45:31.996Z,5.00
2022-10-09T03:50:39.308Z,5.40
2022-10-09T03:55:45.236Z,4.60
2022-10-09T04:00:53.152Z,4.80
2022-10-09T04:05:59.305Z,4.50
2022-10-09T04:11:05.144Z,4.70
2022-10-09T04:16:12.911Z,3.70
2022-10-09T04:21:18.984Z,3.80
2022-10-09T04:26:24.886Z,4.50
2022-10-09T04:31:30.896Z,5.10
2022-10-09T04:36:36.990Z,4.60
2022-10-09T04:41:42.631Z,4.90
2022-10-09T04:46:49.638Z,5.70
2022-10-09T04:51:55.601Z,6.80
2022-10-09T04:57:01.520Z,6.30
2022-10-09T05:02:08.014Z,6.60
2022-10-09T05:07:18.315Z,7.60
2022-10-09T05:12:27.303Z,6.80
2022-10-09T05:17:33.218Z,6.70
2022-10-09T05:22:39.042Z,7.10
2022-10-09T05:27:44.905Z,7.10
2022-10-09T05:32:50.960Z,5.90
2022-10-09T05:37:57.183Z,5.70
2022-10-09T05:43:03.095Z,6.30
2022-10-09T05:48:08.877Z,5.00
2022-10-09T05:53:14.638Z,5.10
2022-10-09T05:58:20.382Z,5.20
2022-10-09T06:03:26.187Z,3.60
2022-10-09T06:08:34.031Z,4.00
2022-10-09T06:13:39.817Z,4.20
2022-10-09T06:18:49.234Z,3.80
2022-10-09T06:23:57.891Z,3.20
2022-10-09T06:29:03.921Z,3.90
2022-10-09T06:34:11.365Z,3.60
2022-10-09T06:39:17.579Z,3.50
2022-10-09T06:44:23.830Z,2.80
2022-10-09T06:49:29.717Z,2.40
2022-10-09T06:54:35.743Z,2.30
2022-10-09T07:12:20.354Z,2.10
2022-10-09T07:17:26.346Z,2.20
2022-10-09T07:22:32.113Z,2.00
2022-10-09T07:27:37.942Z,2.00
2022-10-09T07:32:43.846Z,2.00
2022-10-09T07:37:52.046Z,2.60
2022-10-09T07:42:58.197Z,2.20
2022-10-09T07:48:04.051Z,2.60
2022-10-09T07:53:09.931Z,2.40
2022-10-09T07:58:16.268Z,2.00
2022-10-09T08:03:22.342Z,2.10
2022-10-09T08:08:30.405Z,1.80
2022-10-09T08:13:36.973Z,2.50
2022-10-09T08:18:42.903Z,2.70
2022-10-09T08:23:51.978Z,2.60
2022-10-09T08:28:59.649Z,2.50
2022-10-09T08:34:05.431Z,2.60
2022-10-09T08:39:11.422Z,2.50
2022-10-09T08:44:22.227Z,2.80
2022-10-09T08:49:33.163Z,2.30
2022-10-09T08:54:39.917Z,2.40
2022-10-09T08:59:46.090Z,2.90
2022-10-09T09:05:08.849Z,2.50
2022-10-09T09:10:22.168Z,2.30
2022-10-09T09:15:45.023Z,2.80
2022-10-09T09:20:54.435Z,2.20
2022-10-09T09:26:01.168Z,2.50
2022-10-09T09:31:14.588Z,2.30
2022-10-09T09:36:25.179Z,2.40
2022-10-09T09:41:31.282Z,2.60
2022-10-09T09:46:37.922Z,2.50
2022-10-09T09:51:44.250Z,2.50
2022-10-09T09:57:12.062Z,2.20
2022-10-09T10:02:21.144Z,2.30
2022-10-09T10:07:32.846Z,2.70
2022-10-09T10:12:43.820Z,2.30
2022-10-09T10:17:54.975Z,2.60
2022-10-09T10:23:01.753Z,2.30
2022-10-09T10:28:16.688Z,1.90
2022-10-09T10:33:26.989Z,2.40
2022-10-09T10:38:37.094Z,2.60
2022-10-09T10:43:48.306Z,2.40
2022-10-09T10:48:54.542Z,3.00
2022-10-09T10:54:11.414Z,2.70
2022-10-09T10:59:35.841Z,2.20
2022-10-09T11:04:54.676Z,2.90
2022-10-09T11:10:09.297Z,2.80
2022-10-09T11:15:26.042Z,2.60
2022-10-09T11:20:54.744Z,2.30
2022-10-09T11:26:11.929Z,2.70
2022-10-09T11:31:24.624Z,2.20
2022-10-09T11:36:39.286Z,2.30
2022-10-09T11:41:47.772Z,2.70
2022-10-09T11:47:01.859Z,2.60
2022-10-09T11:52:18.306Z,3.20
2022-10-09T11:57:33.503Z,2.70
2022-10-09T12:02:40.519Z,7.00
2022-10-09T12:07:46.449Z,12.60
2022-10-09T12:13:01.925Z,4.20
2022-10-09T12:18:22.159Z,3.70
2022-10-09T12:23:33.250Z,4.40
2022-10-09T12:28:44.958Z,5.70
2022-10-09T12:33:54.958Z,4.00
2022-10-09T12:39:15.064Z,3.50
2022-10-09T12:44:30.253Z,5.80
2022-10-09T12:49:36.525Z,3.00
2022-10-09T12:54:44.479Z,2.90
2022-10-09T12:59:51.437Z,2.50
2022-10-09T13:05:00.382Z,2.40
2022-10-09T13:10:17.293Z,2.90
2022-10-09T13:15:33.540Z,2.40
2022-10-09T13:20:39.562Z,2.50
2022-10-09T13:25:45.725Z,3.10
2022-10-09T13:30:51.537Z,3.00
2022-10-09T13:35:57.437Z,3.10
2022-10-09T13:41:03.541Z,3.80
2022-10-09T13:46:09.736Z,4.10
2022-10-09T13:51:15.619Z,4.30
2022-10-09T13:56:21.438Z,3.30
2022-10-09T14:01:27.527Z,4.30
2022-10-09T14:06:36.538Z,2.60
2022-10-09T14:11:43.283Z,2.50
2022-10-09T14:16:50.725Z,2.10
2022-10-09T14:21:57.556Z,3.20
2022-10-09T14:27:03.688Z,2.50
2022-10-09T14:32:09.613Z,2.60
2022-10-09T14:37:29.748Z,2.30
2022-10-09T14:42:41.626Z,3.50
2022-10-09T14:47:47.527Z,3.00
2022-10-09T14:52:53.269Z,3.20
2022-10-09T14:57:59.145Z,3.10
2022-10-09T15:03:04.865Z,3.00
2022-10-09T15:08:10.603Z,3.20
2022-10-09T15:13:16.475Z,3.10
2022-10-09T15:18:22.154Z,3.80
2022-10-09T15:23:28.524Z,3.40
2022-10-09T15:28:34.871Z,3.20
2022-10-09T15:33:40.693Z,4.20
2022-10-09T15:38:46.412Z,3.70
2022-10-09T15:43:54.105Z,3.50
2022-10-09T15:49:00.242Z,4.80
2022-10-09T15:54:06.734Z,4.80
2022-10-09T15:59:14.310Z,4.80
2022-10-09T16:04:20.202Z,5.20
2022-10-09T16:09:26.026Z,5.10
2022-10-09T16:19:50.004Z,5.50
2022-10-09T16:24:53.006Z,9.20
2022-10-09T16:29:56.323Z,11.80
2022-10-09T16:34:59.586Z,16.80
2022-10-09T16:40:02.754Z,21.40
2022-10-09T16:45:08.443Z,29.60
2022-10-09T16:50:11.703Z,38.70
2022-10-09T16:55:15.173Z,98.70
2022-10-09T17:00:19.445Z,88.90
2022-10-09T17:05:25.944Z,49.20
2022-10-09T17:10:29.054Z,64.70
2022-10-09T17:15:32.273Z,61.80
2022-10-09T17:20:36.789Z,48.50
2022-10-09T17:25:42.310Z,39.70
2022-10-09T17:30:45.535Z,31.30
2022-10-09T17:35:48.510Z,35.00
2022-10-09T17:40:52.396Z,32.70
2022-10-09T17:45:55.405Z,29.90
2022-10-09T17:50:59.670Z,23.80
2022-10-09T17:56:03.770Z,24.70
2022-10-09T18:01:08.135Z,25.30
2022-10-09T18:06:13.530Z,24.80
2022-10-09T18:11:17.086Z,25.20
2022-10-09T18:16:24.288Z,28.40
2022-10-09T18:21:27.409Z,23.00
2022-10-09T18:26:35.389Z,22.70
2022-10-09T18:31:38.833Z,24.30
2022-10-09T18:36:42.217Z,27.30
2022-10-09T18:41:45.770Z,27.40
2022-10-09T18:46:51.111Z,32.20
2022-10-09T18:51:55.675Z,30.40
2022-10-09T18:56:58.973Z,33.10
2022-10-09T19:02:02.097Z,30.90
2022-10-09T19:07:05.494Z,29.50
2022-10-09T19:12:08.727Z,26.60
2022-10-09T19:17:12.382Z,30.00
2022-10-09T19:22:20.007Z,31.60
2022-10-09T19:27:26.857Z,39.90
2022-10-09T19:32:30.289Z,38.30
2022-10-09T19:37:33.347Z,29.00
2022-10-09T19:42:36.457Z,29.40
2022-10-09T19:47:39.707Z,29.70
2022-10-09T19:54:40.016Z,36.50
2022-10-09T19:59:45.751Z,37.90
2022-10-09T20:04:51.651Z,41.40
2022-10-09T20:09:57.778Z,48.00
2022-10-09T20:15:04.017Z,50.00
2022-10-09T20:20:10.871Z,50.90
2022-10-09T20:25:17.862Z,51.90
2022-10-09T20:30:23.866Z,49.80
2022-10-09T20:35:29.774Z,49.70
2022-10-09T20:40:35.697Z,53.40
2022-10-09T20:45:42.513Z,53.20
2022-10-09T20:50:48.238Z,52.70
2022-10-09T20:55:53.947Z,53.20
2022-10-09T21:00:59.855Z,51.90
2022-10-09T21:06:07.529Z,58.30
2022-10-09T21:11:16.886Z,49.30
2022-10-09T21:16:24.443Z,48.60
2022-10-09T21:21:31.378Z,55.00
2022-10-09T21:26:37.844Z,55.10
2022-10-09T21:31:43.779Z,56.10
2022-10-09T21:42:18.696Z,65.00
2022-10-09T21:47:25.334Z,54.70
2022-10-09T21:52:31.203Z,59.40
2022-10-09T21:57:36.922Z,60.50
2022-10-09T22:02:42.791Z,54.20
2022-10-09T22:07:48.433Z,53.00
2022-10-09T22:12:54.205Z,57.30
2022-10-09T22:17:59.950Z,59.50
2022-10-09T22:23:05.727Z,57.40
2022-10-09T22:28:11.553Z,53.50
2022-10-09T22:33:17.250Z,52.90
2022-10-09T22:38:22.972Z,57.10
2022-10-09T22:43:29.021Z,53.00
2022-10-09T22:48:35.151Z,50.10
2022-10-09T22:53:41.927Z,53.50
2022-10-09T22:58:48.934Z,51.50
2022-10-09T23:03:54.632Z,50.30
2022-10-09T23:09:00.575Z,45.90
2022-10-09T23:14:07.305Z,44.90
2022-10-09T23:19:18.980Z,48.90
2022-10-09T23:24:24.967Z,51.40
2022-10-09T23:29:30.738Z,45.10
2022-10-09T23:34:36.425Z,42.10
2022-10-09T23:39:42.100Z,42.50
2022-10-09T23:44:47.880Z,42.40
2022-10-09T23:49:53.723Z,42.80
2022-10-09T23:54:59.514Z,37.70
